createdAt,value
2023-05-06T00:00:49.849Z,3.95
2023-05-06T00:15:53.975Z,3.67
2023-05-06T00:20:45.687Z,3.22
2023-05-06T00:25:37.412Z,2.85
2023-05-06T00:30:39.101Z,2.72
2023-05-06T00:35:35.992Z,3.28
2023-05-06T00:45:35.184Z,3.10
2023-05-06T00:50:30.215Z,3.45
2023-05-06T00:55:22.298Z,3.90
2023-05-06T01:00:14.375Z,3.60
2023-05-06T01:05:07.592Z,3.17
2023-05-06T01:10:27.893Z,3.28
2023-05-06T01:20:56.464Z,2.95
2023-05-06T01:25:48.356Z,3.22
2023-05-06T01:31:11.738Z,3.00
2023-05-06T01:42:10.422Z,3.30
2023-05-06T01:47:02.762Z,3.13
2023-05-06T01:51:55.700Z,3.10
2023-05-06T01:56:47.396Z,3.10
2023-05-06T02:01:39.099Z,3.10
2023-05-06T02:06:30.828Z,2.83
2023-05-06T02:11:23.756Z,2.78
2023-05-06T02:16:15.853Z,3.17
2023-05-06T02:21:11.999Z,3.55
2023-05-06T02:26:04.314Z,3.28
2023-05-06T02:30:59.372Z,3.95
2023-05-06T02:35:51.809Z,3.78
2023-05-06T02:40:43.495Z,4.28
2023-05-06T02:45:35.251Z,3.88
2023-05-06T02:50:27.067Z,4.32
2023-05-06T02:55:19.405Z,3.92
2023-05-06T03:00:12.704Z,4.45
2023-05-06T03:05:04.910Z,4.68
2023-05-06T03:09:56.688Z,4.30
2023-05-06T03:14:48.379Z,3.70
2023-05-06T03:19:40.089Z,4.18
2023-05-06T03:24:31.813Z,5.18
2023-05-06T03:29:23.571Z,4.78
2023-05-06T03:34:15.257Z,4.20
2023-05-06T03:39:07.182Z,5.05
2023-05-06T03:43:58.848Z,6.07
2023-05-06T03:48:54.212Z,5.10
2023-05-06T03:53:46.527Z,5.10
2023-05-06T03:58:38.203Z,4.95
2023-05-06T04:03:30.229Z,5.75
2023-05-06T04:08:22.016Z,5.65
2023-05-06T04:13:13.790Z,6.38
2023-05-06T04:18:08.305Z,7.25
2023-05-06T04:23:00.300Z,7.28
2023-05-06T04:27:52.066Z,6.95
2023-05-06T04:32:43.731Z,6.93
2023-05-06T04:37:35.426Z,6.57
2023-05-06T04:42:27.316Z,6.25
2023-05-06T04:47:19.173Z,6.60
2023-05-06T04:52:18.663Z,7.00
2023-05-06T04:57:10.399Z,7.80
2023-05-06T05:02:02.108Z,7.97
2023-05-06T05:06:53.850Z,9.02
2023-05-06T05:11:45.531Z,8.55
2023-05-06T05:16:37.489Z,8.95
2023-05-06T05:21:29.319Z,8.73
2023-05-06T05:26:20.990Z,9.10
2023-05-06T05:31:12.765Z,9.18
2023-05-06T05:36:05.233Z,9.43
2023-05-06T05:40:57.031Z,8.73
2023-05-06T05:45:48.706Z,8.73
2023-05-06T05:50:40.384Z,8.25
2023-05-06T05:55:32.123Z,7.80
2023-05-06T06:56:42.969Z,7.45
2023-05-06T07:01:34.989Z,6.38
2023-05-06T07:06:27.216Z,6.57
2023-05-06T07:16:25.252Z,6.13
2023-05-06T07:21:18.619Z,6.70
2023-05-06T07:26:11.253Z,6.40
2023-05-06T07:31:03.108Z,5.03
2023-05-06T07:35:55.227Z,5.10
2023-05-06T07:40:47.716Z,5.25
2023-05-06T07:45:40.540Z,4.20
2023-05-06T07:50:34.489Z,4.03
2023-05-06T08:41:52.749Z,4.15
2023-05-06T08:51:54.624Z,3.88
2023-05-06T08:56:53.561Z,3.53
2023-05-06T09:01:45.310Z,4.35
2023-05-06T09:06:37.019Z,4.07
2023-05-06T09:11:37.998Z,4.00
2023-05-06T09:26:46.456Z,3.38
2023-05-06T09:31:46.265Z,3.78
2023-05-06T09:41:44.749Z,3.20
2023-05-06T09:51:47.715Z,3.33
2023-05-06T09:56:39.896Z,2.78
2023-05-06T10:27:31.154Z,2.30
2023-05-06T10:32:29.222Z,2.88
2023-05-06T11:03:32.269Z,2.22
2023-05-06T11:13:43.670Z,1.95
2023-05-06T11:39:21.472Z,1.73
2023-05-06T11:55:05.773Z,1.70
2023-05-06T11:59:59.465Z,1.60
2023-05-06T12:05:00.213Z,1.50
2023-05-06T15:26:14.655Z,1.05
2023-05-06T15:41:19.565Z,1.40
2023-05-06T15:56:39.365Z,1.13
2023-05-06T16:16:57.254Z,1.40
2023-05-06T16:26:57.188Z,1.33
2023-05-06T17:58:46.405Z,1.45
2023-05-06T18:08:49.135Z,1.67
2023-05-06T18:13:42.106Z,1.70
2023-05-06T18:18:34.483Z,1.80
2023-05-06T18:28:36.502Z,3.40
2023-05-06T19:04:15.062Z,2.28
2023-05-06T19:09:09.335Z,3.25
2023-05-06T20:41:17.508Z,4.95
2023-05-06T20:46:11.201Z,4.00
2023-05-06T20:51:03.689Z,3.50
2023-05-06T20:55:56.831Z,3.53
2023-05-06T21:11:06.060Z,3.50
2023-05-06T21:26:25.348Z,3.30
2023-05-06T21:46:53.576Z,2.78
2023-05-06T22:27:54.135Z,4.80
